Time;durP1;ratioP1;P1;durP2;ratioP2;P2;SDS_P1;SDS_P2;PMS_P1;PMS_P2;Temp;Humidity;BMP_temperature;BMP_pressure;BME280_temperature;BME280_humidity;BME280_pressure;Samples;Min_cycle;Max_cycle;Signal;HPM_P1;HPM_P2
2022/08/05 00:01:30;;;;;;;;;;;24.30;58.90;;;;;;4989847;28;20073;-50
2022/08/05 00:04:16;;;;;;;3.22;2.20;;;24.30;58.40;;;;;;4988253;28;19930;-51
2022/08/05 00:06:46;;;;;;;3.85;2.85;;;24.20;58.30;;;;;;4989588;28;20038;-49
2022/08/05 00:09:21;;;;;;;3.28;2.60;;;24.10;58.80;;;;;;4990437;28;20141;-49
2022/08/05 00:11:49;;;;;;;4.18;2.58;;;24.00;59.40;;;;;;4987259;28;20495;-50
2022/08/05 00:14:25;;;;;;;6.38;2.92;;;24.00;60.20;;;;;;4986928;28;20076;-47
2022/08/05 00:16:55;;;;;;;5.45;2.80;;;23.90;59.60;;;;;;4988955;28;20049;-49
2022/08/05 00:19:22;;;;;;;4.25;2.70;;;23.90;59.80;;;;;;4990875;28;20577;-53
2022/08/05 00:21:54;;;;;;;3.67;2.42;;;23.80;59.90;;;;;;4983680;28;20046;-48
2022/08/05 00:24:21;;;;;;;3.83;2.72;;;23.70;60.00;;;;;;4989001;28;20030;-47
2022/08/05 00:26:51;;;;;;;4.18;3.10;;;23.70;60.00;;;;;;4989155;28;20069;-48
2022/08/05 00:29:21;;;;;;;3.08;2.25;;;23.60;60.20;;;;;;4971177;28;20044;-50
2022/08/05 00:31:54;;;;;;;5.45;2.83;;;23.60;60.60;;;;;;4981349;28;20427;-49
2022/08/05 00:34:42;;;;;;;3.78;2.47;;;23.50;60.70;;;;;;4989708;28;20476;-50
2022/08/05 00:37:29;;;;;;;3.33;3.00;;;23.40;60.60;;;;;;4970012;28;20049;-49
2022/08/05 00:40:19;;;;;;;3.13;2.83;;;23.50;60.80;;;;;;4979787;28;20038;-48
2022/08/05 00:42:58;;;;;;;3.35;2.97;;;23.30;60.80;;;;;;4993344;28;20549;-50
2022/08/05 00:45:26;;;;;;;4.30;2.85;;;23.30;61.20;;;;;;4993709;28;20109;-48
2022/08/05 00:48:10;;;;;;;3.47;2.45;;;23.20;61.30;;;;;;4976257;28;20529;-49
2022/08/05 00:50:39;;;;;;;4.88;2.70;;;23.20;61.40;;;;;;4986989;28;20038;-52
2022/08/05 00:53:08;;;;;;;3.58;2.85;;;23.20;61.60;;;;;;4993654;28;20070;-50
2022/08/05 00:55:52;;;;;;;4.68;4.15;;;23.10;62.10;;;;;;4974773;28;20137;-52
2022/08/05 00:58:19;;;;;;;4.70;2.67;;;23.10;61.60;;;;;;4988663;28;20042;-51
2022/08/05 01:00:53;;;;;;;3.05;2.75;;;23.20;61.70;;;;;;4992984;28;20045;-51
2022/08/05 01:03:26;;;;;;;3.58;3.00;;;23.20;61.80;;;;;;4997556;28;20088;-49
2022/08/05 01:05:59;;;;;;;5.63;3.00;;;23.10;61.70;;;;;;5011842;28;20041;-53
2022/08/05 01:08:26;;;;;;;3.53;2.70;;;23.20;61.80;;;;;;4987372;28;20054;-49
2022/08/05 01:11:17;;;;;;;5.80;2.90;;;23.10;61.80;;;;;;4991190;28;20464;-52
2022/08/05 01:13:56;;;;;;;;;;;23.20;62.40;;;;;;4994112;28;20490;-50
2022/08/05 01:16:41;;;;;;;3.72;2.25;;;23.10;60.90;;;;;;4988094;28;19925;-49
2022/08/05 01:19:21;;;;;;;5.47;3.60;;;23.20;61.70;;;;;;4992306;28;20609;-51
2022/08/05 01:22:23;;;;;;;4.00;2.22;;;23.20;61.90;;;;;;4991853;28;20475;-48
2022/08/05 01:25:16;;;;;;;3.72;2.80;;;23.10;61.80;;;;;;4976022;28;20129;-49
2022/08/05 01:28:09;;;;;;;4.53;2.38;;;23.10;61.90;;;;;;4986022;28;20097;-48
2022/08/05 01:30:41;;;;;;;5.57;3.20;;;23.10;62.20;;;;;;4989527;28;20038;-49
2022/08/05 01:33:28;;;;;;;6.63;3.00;;;23.10;61.90;;;;;;4973584;28;20066;-53
2022/08/05 01:36:08;;;;;;;3.72;3.38;;;23.20;62.00;;;;;;4983464;28;20049;-52
2022/08/05 01:38:45;;;;;;;5.40;3.20;;;23.10;62.10;;;;;;4987995;28;20073;-53
2022/08/05 01:41:20;;;;;;;5.20;3.30;;;23.10;62.10;;;;;;4991489;28;20542;-50
2022/08/05 01:43:49;;;;;;;4.15;3.10;;;23.10;62.30;;;;;;4988318;28;20082;-50
2022/08/05 01:46:19;;;;;;;4.05;3.15;;;23.10;62.30;;;;;;4987188;28;20097;-47
2022/08/05 01:49:13;;;;;;;6.30;3.30;;;23.10;62.40;;;;;;4975466;28;20061;-50
2022/08/05 01:51:55;;;;;;;7.10;4.72;;;23.10;62.80;;;;;;4990907;28;20046;-48
2022/08/05 01:54:45;;;;;;;4.53;4.10;;;23.10;63.10;;;;;;4986929;28;20568;-49
2022/08/05 01:57:23;;;;;;;4.05;3.28;;;23.10;63.60;;;;;;4974353;28;20074;-48
2022/08/05 02:00:11;;;;;;;4.63;4.22;;;23.10;63.60;;;;;;4991861;28;20690;-48
2022/08/05 02:03:00;;;;;;;5.68;3.75;;;23.10;63.50;;;;;;4978364;28;20045;-48
2022/08/05 02:05:37;;;;;;;5.30;3.88;;;23.10;63.80;;;;;;4970867;28;20038;-52
2022/08/05 02:08:08;;;;;;;6.97;3.55;;;23.10;63.90;;;;;;4992015;28;20042;-48
2022/08/05 02:10:46;;;;;;;4.63;3.88;;;23.10;63.70;;;;;;4991922;28;20451;-47
2022/08/05 02:13:31;;;;;;;7.82;4.18;;;23.10;64.50;;;;;;4988463;28;20047;-49
2022/08/05 02:16:26;;;;;;;3.65;3.28;;;23.10;65.50;;;;;;4990824;28;20046;-50
2022/08/05 02:19:10;;;;;;;4.13;3.47;;;23.10;64.30;;;;;;4991913;28;20061;-50
2022/08/05 02:21:46;;;;;;;6.43;4.13;;;23.10;65.20;;;;;;4985114;28;20046;-48
2022/08/05 02:24:19;;;;;;;5.93;3.97;;;23.20;65.10;;;;;;4984758;28;20050;-51
2022/08/05 02:26:55;;;;;;;5.18;4.45;;;23.10;65.30;;;;;;4990094;28;20585;-48
2022/08/05 02:29:29;;;;;;;5.35;3.88;;;23.10;65.40;;;;;;4972861;28;20038;-50
2022/08/05 02:32:24;;;;;;;9.60;5.03;;;23.10;65.10;;;;;;4969905;28;20046;-52
2022/08/05 02:35:00;;;;;;;4.32;3.85;;;23.10;65.10;;;;;;4988673;28;20052;-54
2022/08/05 02:37:42;;;;;;;6.45;4.40;;;23.10;65.10;;;;;;4991242;28;20034;-49
2022/08/05 02:40:23;;;;;;;7.75;4.35;;;23.10;65.10;;;;;;4991393;28;20506;-47
2022/08/05 02:42:55;;;;;;;5.40;3.85;;;23.20;65.40;;;;;;4985494;28;20039;-49
2022/08/05 02:45:27;;;;;;;6.30;3.83;;;23.10;65.30;;;;;;4990843;28;20043;-53
2022/08/05 02:48:16;;;;;;;6.80;4.10;;;23.10;65.20;;;;;;4998542;28;20128;-48
2022/08/05 02:50:50;;;;;;;5.78;4.10;;;23.20;64.80;;;;;;4997599;28;20123;-51
2022/08/05 02:53:19;;;;;;;6.90;4.32;;;23.10;64.80;;;;;;5002165;28;20109;-50
2022/08/05 02:55:48;;;;;;;5.55;4.28;;;23.10;64.60;;;;;;5002634;28;20043;-47
2022/08/05 02:58:26;;;;;;;5.30;4.07;;;23.10;64.80;;;;;;4998695;28;20042;-50
2022/08/05 03:00:59;;;;;;;5.65;5.03;;;23.10;65.10;;;;;;4994059;28;20050;-51
2022/08/05 03:03:29;;;;;;;7.20;4.80;;;23.00;65.40;;;;;;5000094;28;20034;-47
2022/08/05 03:06:00;;;;;;;;;;;23.00;65.20;;;;;;5003256;28;20038;-50
2022/08/05 03:08:48;;;;;;;6.13;5.03;;;23.00;64.30;;;;;;4974814;28;19922;-50
2022/08/05 03:11:24;;;;;;;5.97;4.47;;;22.90;64.70;;;;;;4989645;28;20097;-47
2022/08/05 03:14:11;;;;;;;9.40;5.55;;;22.90;65.10;;;;;;4991541;28;20075;-47
2022/08/05 03:16:41;;;;;;;5.45;4.57;;;22.80;65.30;;;;;;4987919;28;20070;-51
2022/08/05 03:19:10;;;;;;;6.53;5.35;;;22.80;65.70;;;;;;4988045;28;20481;-50
2022/08/05 03:21:56;;;;;;;6.82;5.18;;;22.80;65.90;;;;;;4986835;28;20117;-50
2022/08/05 03:24:24;;;;;;;5.32;4.78;;;22.80;66.70;;;;;;4991134;28;20121;-48
2022/08/05 03:26:59;;;;;;;6.50;5.38;;;22.80;66.10;;;;;;4989771;28;20063;-52
2022/08/05 03:29:26;;;;;;;7.50;5.55;;;22.80;66.30;;;;;;4984962;28;20511;-47
2022/08/05 03:32:14;;;;;;;7.35;5.75;;;22.80;66.10;;;;;;4989677;28;20058;-49
2022/08/05 03:34:45;;;;;;;6.67;5.27;;;22.80;66.40;;;;;;4974700;28;20125;-48
2022/08/05 03:37:17;;;;;;;;;;;22.80;66.70;;;;;;4988109;28;20046;-50
2022/08/05 03:39:58;;;;;;;7.25;5.28;;;22.80;66.20;;;;;;4984836;28;19922;-53
2022/08/05 03:42:33;;;;;;;6.80;5.63;;;22.80;67.00;;;;;;4995511;28;20431;-49
2022/08/05 03:45:18;;;;;;;8.35;6.28;;;22.80;66.20;;;;;;4990718;28;20129;-51
2022/08/05 03:47:48;;;;;;;6.78;5.80;;;22.90;66.40;;;;;;4990986;28;20038;-49
2022/08/05 03:50:15;;;;;;;6.25;5.65;;;22.90;66.50;;;;;;4990410;28;20096;-51
2022/08/05 03:52:56;;;;;;;7.28;6.53;;;22.90;66.80;;;;;;4990324;28;20078;-51
2022/08/05 03:55:57;;;;;;;6.20;5.60;;;23.00;67.60;;;;;;4976015;28;20125;-52
2022/08/05 03:58:41;;;;;;;6.00;5.40;;;23.00;67.20;;;;;;4983705;28;20411;-52
2022/08/05 04:01:25;;;;;;;7.55;6.32;;;22.90;66.40;;;;;;4990009;28;20038;-55
2022/08/05 04:03:59;;;;;;;6.82;6.13;;;23.00;66.50;;;;;;5006866;28;20056;-52
2022/08/05 04:06:40;;;;;;;7.20;5.72;;;23.10;66.70;;;;;;5001433;28;20114;-52
2022/08/05 04:09:20;;;;;;;6.97;5.60;;;23.10;66.80;;;;;;4990639;28;20118;-51
2022/08/05 04:11:53;;;;;;;6.57;5.43;;;23.00;66.60;;;;;;4989942;28;20687;-47
2022/08/05 04:14:26;;;;;;;6.57;5.85;;;23.10;66.70;;;;;;4991862;28;20049;-51
2022/08/05 04:16:58;;;;;;;7.18;5.75;;;23.10;66.40;;;;;;4986589;28;20038;-51
2022/08/05 04:19:27;;;;;;;8.15;6.18;;;23.10;66.40;;;;;;4994895;28;20505;-48
2022/08/05 04:21:54;;;;;;;6.40;5.80;;;23.20;66.30;;;;;;4993397;28;20046;-50
2022/08/05 04:24:41;;;;;;;6.57;5.88;;;23.10;66.30;;;;;;4973865;28;20046;-54
2022/08/05 04:27:13;;;;;;;9.20;6.05;;;23.20;66.50;;;;;;4992931;28;20093;-50
2022/08/05 04:29:44;;;;;;;6.35;5.75;;;23.10;65.90;;;;;;4997474;28;20084;-53
2022/08/05 04:32:14;;;;;;;6.82;6.05;;;23.10;65.60;;;;;;5000131;28;20715;-53
2022/08/05 04:34:53;;;;;;;7.30;5.38;;;23.10;65.60;;;;;;5001663;28;20038;-48
2022/08/05 04:37:23;;;;;;;7.20;6.15;;;23.10;65.70;;;;;;4981493;28;20046;-47
2022/08/05 04:40:10;;;;;;;8.95;5.78;;;23.00;65.70;;;;;;5000411;28;20133;-52
2022/08/05 04:42:37;;;;;;;7.60;5.82;;;23.00;65.90;;;;;;4996944;28;20498;-51
2022/08/05 04:45:07;;;;;;;6.72;6.00;;;23.00;66.00;;;;;;4995691;28;20545;-52
2022/08/05 04:47:39;;;;;;;7.22;6.53;;;23.00;66.10;;;;;;4997055;28;20491;-49
2022/08/05 04:50:13;;;;;;;7.75;6.22;;;23.00;66.00;;;;;;5003682;28;20113;-52
2022/08/05 04:53:00;;;;;;;7.55;6.60;;;22.90;66.20;;;;;;4992916;28;20038;-49
2022/08/05 04:55:27;;;;;;;9.23;7.15;;;22.90;66.00;;;;;;5000018;28;20526;-50
2022/08/05 04:58:16;;;;;;;8.80;6.30;;;22.90;66.20;;;;;;4996684;28;20077;-52
2022/08/05 05:00:47;;;;;;;9.45;6.50;;;22.90;66.30;;;;;;4993184;28;20125;-49
2022/08/05 05:03:16;;;;;;;8.20;6.40;;;22.80;66.30;;;;;;4987468;28;20108;-49
2022/08/05 05:05:46;;;;;;;7.25;6.28;;;22.80;66.40;;;;;;4991749;28;20049;-52
2022/08/05 05:08:35;;;;;;;7.28;6.32;;;22.80;66.40;;;;;;4974111;28;20081;-50
2022/08/05 05:11:09;;;;;;;8.38;6.68;;;22.80;66.20;;;;;;4987326;28;20046;-50
2022/08/05 05:13:40;;;;;;;8.82;6.78;;;22.80;66.20;;;;;;4988081;28;20057;-49
2022/08/05 05:16:09;;;;;;;7.55;6.63;;;22.80;66.20;;;;;;4992920;28;20049;-52
2022/08/05 05:18:37;;;;;;;9.73;7.13;;;22.70;66.30;;;;;;4993562;28;20050;-51
2022/08/05 05:21:04;;;;;;;8.27;6.95;;;22.70;66.10;;;;;;4987158;28;20109;-52
2022/08/05 05:23:31;;;;;;;7.28;6.50;;;22.70;66.10;;;;;;4971417;28;20051;-52
2022/08/05 05:26:18;;;;;;;8.27;7.47;;;22.60;66.20;;;;;;4987184;28;20519;-55
2022/08/05 05:28:53;;;;;;;7.57;6.82;;;22.60;66.00;;;;;;4984669;28;20046;-53
2022/08/05 05:31:22;;;;;;;8.18;6.85;;;22.60;66.00;;;;;;4987313;28;20038;-53
2022/08/05 05:33:53;;;;;;;9.77;6.85;;;22.50;66.00;;;;;;4987056;28;20042;-49
2022/08/05 05:36:30;;;;;;;8.65;6.68;;;22.50;66.00;;;;;;4991600;28;20042;-48
2022/08/05 05:38:57;;;;;;;7.72;6.25;;;22.40;65.90;;;;;;4991365;28;20507;-48
2022/08/05 05:41:24;;;;;;;6.95;5.82;;;22.40;65.90;;;;;;4990836;28;20854;-52
2022/08/05 05:44:06;;;;;;;7.78;6.28;;;22.40;66.00;;;;;;4986364;28;20045;-48
2022/08/05 05:46:53;;;;;;;9.63;6.32;;;22.30;65.90;;;;;;4989977;28;20054;-52
2022/08/05 05:49:22;;;;;;;10.77;6.15;;;22.30;65.80;;;;;;4971976;28;20054;-52
2022/08/05 05:51:49;;;;;;;6.38;5.78;;;22.20;65.80;;;;;;4990674;28;20050;-53
2022/08/05 05:54:19;;;;;;;8.30;5.85;;;22.20;66.00;;;;;;4983152;28;20486;-52
2022/08/05 05:56:46;;;;;;;6.88;5.95;;;22.10;66.20;;;;;;4990760;28;20041;-48
2022/08/05 05:59:13;;;;;;;8.65;5.40;;;22.10;66.20;;;;;;4988532;28;20101;-53
2022/08/05 06:01:41;;;;;;;5.72;4.63;;;22.10;66.20;;;;;;4989676;28;20038;-53
2022/08/05 06:04:23;;;;;;;6.57;5.10;;;22.00;66.30;;;;;;4981601;28;20035;-48
2022/08/05 06:06:50;;;;;;;7.30;5.53;;;22.00;66.10;;;;;;4990411;28;20038;-51
2022/08/05 06:09:17;;;;;;;6.03;4.43;;;22.00;66.00;;;;;;4985217;28;20153;-48
2022/08/05 06:12:02;;;;;;;7.85;4.93;;;22.00;65.90;;;;;;4990333;28;20042;-49
2022/08/05 06:14:30;;;;;;;7.85;4.82;;;21.90;65.90;;;;;;4990641;28;20050;-52
2022/08/05 06:17:00;;;;;;;5.18;4.50;;;21.90;65.80;;;;;;4970491;28;20061;-51
2022/08/05 06:19:47;;;;;;;4.43;3.85;;;21.90;66.00;;;;;;4990676;28;20050;-53
2022/08/05 06:22:30;;;;;;;6.47;4.18;;;21.80;66.00;;;;;;4982430;28;20222;-52
2022/08/05 06:24:59;;;;;;;8.07;3.95;;;21.80;65.60;;;;;;4986746;28;20050;-51
2022/08/05 06:27:46;;;;;;;4.15;3.13;;;21.90;65.30;;;;;;4976162;28;20113;-51
2022/08/05 06:30:33;;;;;;;5.60;3.65;;;21.80;65.40;;;;;;4993491;28;20471;-52
2022/08/05 06:33:00;;;;;;;4.80;3.28;;;21.80;65.50;;;;;;4986099;28;20038;-48
2022/08/05 06:35:27;;;;;;;4.63;3.03;;;21.80;65.20;;;;;;4990217;28;20039;-48
2022/08/05 06:38:13;;;;;;;5.30;2.80;;;21.90;65.00;;;;;;4985968;28;20042;-53
2022/08/05 06:40:41;;;;;;;4.35;2.88;;;21.80;64.70;;;;;;4985731;28;20058;-52
2022/08/05 06:43:10;;;;;;;5.07;3.13;;;21.80;64.60;;;;;;4988528;28;20042;-52
2022/08/05 06:45:57;;;;;;;3.67;3.17;;;21.80;64.80;;;;;;4983672;28;20030;-51
2022/08/05 06:48:33;;;;;;;3.78;2.78;;;21.80;64.50;;;;;;4984143;28;20090;-53
2022/08/05 06:51:21;;;;;;;7.00;2.67;;;21.80;64.40;;;;;;4982402;28;20042;-49
2022/08/05 06:53:59;;;;;;;5.20;2.75;;;21.70;64.30;;;;;;4989928;28;20038;-53
2022/08/05 06:56:28;;;;;;;5.72;3.03;;;21.70;64.20;;;;;;4985104;28;20045;-49
2022/08/05 06:58:57;;;;;;;4.40;3.10;;;21.70;64.40;;;;;;4986336;28;20114;-50
2022/08/05 07:01:26;;;;;;;4.80;3.35;;;21.60;65.40;;;;;;4983891;28;20042;-50
2022/08/05 07:04:00;;;;;;;3.58;2.53;;;21.60;64.60;;;;;;4989845;28;20038;-50
2022/08/05 07:06:28;;;;;;;4.25;3.20;;;21.50;64.80;;;;;;4985402;28;20041;-50
2022/08/05 07:08:57;;;;;;;3.55;2.72;;;21.50;64.90;;;;;;4995444;28;20502;-49
2022/08/05 07:11:27;;;;;;;3.45;2.33;;;21.40;65.60;;;;;;4991438;28;20411;-49
2022/08/05 07:16:50;;;;;;;5.32;2.75;;;21.40;65.00;;;;;;4987016;28;20048;-50
2022/08/05 07:19:37;;;;;;;5.78;2.65;;;21.40;65.10;;;;;;4985318;28;20534;-50
2022/08/05 07:22:24;;;;;;;4.82;2.70;;;21.30;65.20;;;;;;4981044;28;20074;-51
2022/08/05 07:25:00;;;;;;;4.37;2.10;;;21.30;65.30;;;;;;4984182;28;20046;-54
2022/08/05 07:27:47;;;;;;;3.55;2.47;;;21.40;65.80;;;;;;4989606;28;20336;-51
2022/08/05 07:30:29;;;;;;;4.20;2.03;;;21.40;65.30;;;;;;4990309;28;20406;-52
2022/08/05 07:33:03;;;;;;;6.22;2.50;;;21.40;65.30;;;;;;4986029;28;20038;-50
2022/08/05 07:35:38;;;;;;;4.65;2.22;;;21.40;65.30;;;;;;4989507;28;20046;-50
2022/08/05 07:38:26;;;;;;;3.05;2.10;;;21.50;65.10;;;;;;4982350;28;20076;-50
2022/08/05 07:41:05;;;;;;;5.70;2.35;;;21.40;64.90;;;;;;4988154;28;20121;-50
2022/08/05 07:43:53;;;;;;;6.07;2.40;;;21.50;65.00;;;;;;4985002;28;20582;-53
2022/08/05 07:46:23;;;;;;;3.30;1.90;;;21.50;64.80;;;;;;4982154;28;20486;-54
2022/08/05 07:48:57;;;;;;;1.83;1.58;;;21.50;64.70;;;;;;4987544;28;20038;-48
2022/08/05 07:51:35;;;;;;;3.83;1.92;;;21.50;64.50;;;;;;4978129;28;20319;-53
2022/08/05 07:54:22;;;;;;;5.20;2.05;;;21.50;65.00;;;;;;4989701;28;20093;-51
2022/08/05 07:56:55;;;;;;;3.92;2.28;;;21.60;65.10;;;;;;4989848;28;20129;-48
2022/08/05 07:59:40;;;;;;;2.40;1.90;;;21.60;64.70;;;;;;4984837;28;20035;-47
2022/08/05 08:02:09;;;;;;;1.58;1.45;;;21.60;64.30;;;;;;4986506;28;20085;-49
2022/08/05 08:04:45;;;;;;;5.03;2.15;;;21.60;64.30;;;;;;4985119;28;20518;-54
2022/08/05 08:07:12;;;;;;;3.53;2.30;;;21.70;64.20;;;;;;4989692;28;20046;-48
2022/08/05 08:09:40;;;;;;;3.00;2.13;;;21.70;64.10;;;;;;4990753;28;20066;-50
2022/08/05 08:12:07;;;;;;;3.25;2.00;;;21.70;64.10;;;;;;4989644;28;20053;-53
2022/08/05 08:14:54;;;;;;;4.72;2.78;;;21.80;64.00;;;;;;4990418;28;20070;-48
2022/08/05 08:17:24;;;;;;;4.97;2.58;;;21.80;64.00;;;;;;4986967;28;20470;-50
2022/08/05 08:19:56;;;;;;;2.55;2.33;;;21.90;64.00;;;;;;4982678;28;20527;-51
2022/08/05 08:22:42;;;;;;;4.68;3.03;;;21.90;64.40;;;;;;4983829;28;20042;-48
2022/08/05 08:25:10;;;;;;;4.97;2.60;;;21.90;64.40;;;;;;4973320;28;20047;-49
2022/08/05 08:27:43;;;;;;;3.00;2.47;;;22.00;64.70;;;;;;4989084;28;20129;-50
2022/08/05 08:30:17;;;;;;;2.65;2.38;;;22.00;64.20;;;;;;4984976;28;20117;-51
2022/08/05 08:33:10;;;;;;;5.88;2.53;;;22.20;64.20;;;;;;4984054;28;20046;-50
2022/08/05 08:35:40;;;;;;;4.80;2.47;;;22.20;64.30;;;;;;4984465;28;20060;-50
2022/08/05 08:38:20;;;;;;;3.25;2.58;;;22.30;64.10;;;;;;4978251;28;20052;-51
2022/08/05 08:41:08;;;;;;;3.25;2.45;;;22.40;63.70;;;;;;4989358;28;20414;-48
2022/08/05 08:43:37;;;;;;;3.00;2.67;;;22.50;63.80;;;;;;4983521;28;20042;-48
2022/08/05 08:46:26;;;;;;;2.72;2.50;;;22.50;63.80;;;;;;4990377;28;20097;-52
2022/08/05 08:48:54;;;;;;;4.13;2.42;;;22.60;63.70;;;;;;4985576;28;20030;-52
2022/08/05 08:51:45;;;;;;;4.13;2.88;;;22.70;63.50;;;;;;4985064;28;20113;-48
2022/08/05 08:54:31;;;;;;;3.50;2.53;;;22.80;63.50;;;;;;4971001;28;20074;-52
2022/08/05 08:56:59;;;;;;;4.20;2.97;;;22.80;63.10;;;;;;4977859;28;21043;-51
2022/08/05 08:59:26;;;;;;;3.47;2.90;;;22.90;63.10;;;;;;4986228;28;20056;-52
2022/08/05 09:02:03;;;;;;;3.38;2.40;;;23.00;63.20;;;;;;4985861;28;20057;-54
2022/08/05 09:04:36;;;;;;;5.00;3.10;;;23.10;63.10;;;;;;4994334;28;20050;-50
2022/08/05 09:07:23;;;;;;;3.40;2.20;;;23.20;63.00;;;;;;4973900;28;20096;-51
2022/08/05 09:10:05;;;;;;;3.28;2.67;;;23.30;62.30;;;;;;4995865;28;20200;-48
2022/08/05 09:12:33;;;;;;;5.78;2.60;;;23.50;62.20;;;;;;4987751;28;20038;-50
2022/08/05 09:15:05;;;;;;;2.60;2.40;;;23.60;61.30;;;;;;4990973;28;20049;-48
2022/08/05 09:17:33;;;;;;;2.17;2.03;;;23.70;61.20;;;;;;4989205;28;20134;-52
2022/08/05 09:20:15;;;;;;;2.92;2.33;;;23.80;61.30;;;;;;4993203;28;20459;-48
2022/08/05 09:23:14;;;;;;;3.20;2.53;;;23.90;60.40;;;;;;4972108;28;20125;-53
2022/08/05 09:25:50;;;;;;;2.67;1.80;;;24.00;59.80;;;;;;4989375;28;20498;-51
2022/08/05 09:28:31;;;;;;;3.33;2.30;;;24.10;59.50;;;;;;4987861;28;20060;-48
2022/08/05 09:31:04;;;;;;;7.43;2.58;;;24.10;59.30;;;;;;4992560;28;20073;-50
2022/08/05 09:33:52;;;;;;;5.18;2.40;;;24.20;59.30;;;;;;4991161;28;20042;-53
2022/08/05 09:36:19;;;;;;;3.08;1.88;;;24.20;59.00;;;;;;4986787;28;20042;-51
2022/08/05 09:39:02;;;;;;;3.22;1.80;;;24.20;58.40;;;;;;4991837;28;20042;-54
2022/08/05 09:42:03;;;;;;;6.03;2.13;;;24.20;57.90;;;;;;4946656;28;20443;-52
2022/08/05 09:44:42;;;;;;;3.58;1.88;;;24.20;57.60;;;;;;4988316;28;20046;-52
2022/08/05 09:47:19;;;;;;;3.25;1.73;;;24.20;58.50;;;;;;4991599;28;20054;-51
2022/08/05 09:49:47;;;;;;;2.88;1.95;;;24.20;57.60;;;;;;4991741;28;20465;-54
2022/08/05 09:52:31;;;;;;;2.65;1.90;;;24.20;58.10;;;;;;4987283;28;20124;-50
2022/08/05 09:55:02;;;;;;;2.35;1.50;;;24.20;58.10;;;;;;4986306;28;20125;-52
2022/08/05 09:57:49;;;;;;;5.18;1.77;;;24.20;57.90;;;;;;4973982;28;20058;-52
2022/08/05 10:00:24;;;;;;;4.72;1.90;;;24.20;57.60;;;;;;4972658;28;20054;-49
2022/08/05 10:02:55;;;;;;;3.70;2.38;;;24.20;58.00;;;;;;4988036;28;20042;-48
2022/08/05 10:05:26;;;;;;;2.33;1.50;;;24.30;57.90;;;;;;4966743;28;20059;-51
2022/08/05 10:07:56;;;;;;;2.83;2.10;;;24.30;57.70;;;;;;4994991;28;20046;-50
2022/08/05 10:10:43;;;;;;;4.38;2.33;;;24.40;58.20;;;;;;4988711;28;20042;-53
2022/08/05 10:13:11;;;;;;;5.47;2.35;;;24.50;58.50;;;;;;4983710;28;20503;-52
2022/08/05 10:15:40;;;;;;;5.35;3.03;;;24.60;57.60;;;;;;4990518;28;20116;-51
2022/08/05 10:18:14;;;;;;;3.75;1.90;;;24.70;56.60;;;;;;4989755;28;20034;-51
2022/08/05 10:20:52;;;;;;;5.30;2.63;;;24.80;56.90;;;;;;4987484;28;20034;-50
2022/08/05 10:23:31;;;;;;;5.65;2.60;;;24.90;56.40;;;;;;4989363;28;20096;-53
2022/08/05 10:26:18;;;;;;;5.82;3.35;;;25.10;56.50;;;;;;4989201;28;20066;-52
2022/08/05 10:28:57;;;;;;;5.53;2.58;;;25.20;56.00;;;;;;4983633;28;20043;-51
2022/08/05 10:31:24;;;;;;;2.72;1.50;;;25.30;55.70;;;;;;4985606;28;20057;-52
2022/08/05 10:34:10;;;;;;;3.83;1.80;;;25.40;56.00;;;;;;4989994;28;20494;-52
2022/08/05 10:36:40;;;;;;;2.30;1.88;;;25.50;56.10;;;;;;4989197;28;20058;-53
2022/08/05 10:39:13;;;;;;;5.50;3.08;;;25.60;54.60;;;;;;4989912;28;20054;-52
2022/08/05 10:42:06;;;;;;;3.53;2.17;;;25.80;55.00;;;;;;4981231;28;20051;-51
2022/08/05 10:44:44;;;;;;;4.38;3.20;;;25.90;54.40;;;;;;4984254;28;20042;-50
2022/08/05 10:47:13;;;;;;;4.22;2.22;;;26.00;53.60;;;;;;4989366;28;20046;-52
2022/08/05 10:50:11;;;;;;;5.63;2.92;;;26.10;54.30;;;;;;4971622;28;20035;-52
2022/08/05 10:52:59;;;;;;;4.55;2.80;;;26.10;53.20;;;;;;4986582;28;20089;-50
2022/08/05 10:55:26;;;;;;;7.35;3.38;;;26.00;53.90;;;;;;4989602;28;20043;-52
2022/08/05 10:58:09;;;;;;;3.92;2.67;;;25.90;53.20;;;;;;4971846;28;20081;-49
2022/08/05 11:00:37;;;;;;;3.45;3.15;;;25.70;53.30;;;;;;4972657;28;20077;-54
2022/08/05 11:03:11;;;;;;;3.40;3.10;;;25.60;53.80;;;;;;4990393;28;20074;-50
2022/08/05 11:06:05;;;;;;;;;;;25.50;53.90;;;;;;4988907;28;20042;-51
2022/08/05 11:09:09;;;;;;;4.32;3.05;;;25.30;54.30;;;;;;4985029;28;20012;-50
2022/08/05 11:11:40;;;;;;;3.72;3.35;;;25.20;54.60;;;;;;4982760;28;20446;-50
2022/08/05 11:14:37;;;;;;;5.82;3.55;;;25.10;55.00;;;;;;4964153;28;20050;-50
2022/08/05 11:17:36;;;;;;;5.72;3.67;;;25.10;55.30;;;;;;4987681;28;20065;-48
2022/08/05 11:20:38;;;;;;;3.75;3.03;;;25.20;55.60;;;;;;4988181;28;20663;-53
2022/08/05 11:23:31;;;;;;;5.25;4.25;;;25.30;55.70;;;;;;4981795;28;20499;-49
2022/08/05 11:26:18;;;;;;;4.07;3.58;;;25.30;55.00;;;;;;4989325;28;20042;-53
2022/08/05 11:28:59;;;;;;;5.70;2.67;;;25.40;54.70;;;;;;4984814;28;20384;-49
2022/08/05 11:31:38;;;;;;;3.45;3.05;;;25.40;53.80;;;;;;4998718;28;20058;-49
2022/08/05 11:34:39;;;;;;;3.42;3.13;;;25.40;54.20;;;;;;4997214;28;20618;-52
2022/08/05 11:37:52;;;;;;;6.55;2.90;;;25.40;54.10;;;;;;4988626;28;20052;-51
2022/08/05 11:41:02;;;;;;;4.20;2.58;;;25.40;54.80;;;;;;4984856;28;20407;-51
2022/08/05 11:43:59;;;;;;;4.90;3.25;;;25.50;54.40;;;;;;4970986;28;20600;-48
2022/08/05 11:46:47;;;;;;;3.53;2.65;;;25.60;53.90;;;;;;4978141;23;20121;31
2022/08/05 11:49:33;;;;;;;2.97;2.42;;;25.60;53.50;;;;;;5007409;28;20116;-47
2022/08/05 11:52:01;;;;;;;4.85;3.42;;;25.60;53.80;;;;;;5009508;28;20469;-48
2022/08/05 11:54:38;;;;;;;4.45;3.35;;;25.70;53.60;;;;;;5009503;28;20050;-49
2022/08/05 11:57:07;;;;;;;3.97;2.70;;;25.80;53.90;;;;;;5008308;28;20042;-49
2022/08/05 11:59:50;;;;;;;2.88;2.28;;;25.90;53.90;;;;;;5019376;28;20120;-52
2022/08/05 12:02:22;;;;;;;2.97;1.90;;;26.10;53.80;;;;;;5021048;28;20497;-50
2022/08/05 12:05:00;;;;;;;5.20;2.80;;;26.20;53.40;;;;;;5014025;28;20038;-52
2022/08/05 12:07:37;;;;;;;3.53;2.28;;;26.50;52.80;;;;;;4997219;28;20053;-49
2022/08/05 12:10:26;;;;;;;4.35;2.38;;;26.70;52.50;;;;;;5007146;28;20128;-48
2022/08/05 12:13:15;;;;;;;2.45;1.88;;;26.90;51.70;;;;;;5014862;28;20042;-47
2022/08/05 12:16:06;;;;;;;2.63;2.13;;;27.00;50.60;;;;;;4995178;28;20553;-52
2022/08/05 12:18:41;;;;;;;5.85;2.58;;;27.20;50.60;;;;;;4989847;28;20042;-52
2022/08/05 12:21:27;;;;;;;3.40;1.65;;;27.10;50.30;;;;;;5013215;28;20136;-50
2022/08/05 12:24:06;;;;;;;2.65;1.38;;;27.00;49.60;;;;;;5008878;28;20053;-49
2022/08/05 12:26:38;;;;;;;3.15;1.30;;;26.80;49.90;;;;;;5022153;28;20049;-50
2022/08/05 12:29:24;;;;;;;2.15;1.60;;;26.50;49.20;;;;;;5027708;28;20509;-47
2022/08/05 12:31:56;;;;;;;2.10;1.40;;;26.20;49.80;;;;;;5024717;28;20654;-49
2022/08/05 12:34:30;;;;;;;2.85;2.10;;;26.00;50.90;;;;;;5007970;28;20092;-51
2022/08/05 12:37:05;;;;;;;3.80;1.77;;;25.70;51.70;;;;;;5006627;28;20072;-48
2022/08/05 12:39:32;;;;;;;5.63;2.13;;;25.50;52.20;;;;;;5012897;28;20108;-53
2022/08/05 12:42:10;;;;;;;3.85;1.60;;;25.20;52.90;;;;;;5010284;28;20046;-50
2022/08/05 12:44:43;;;;;;;2.65;1.60;;;25.10;53.70;;;;;;5020742;28;20124;-53
2022/08/05 12:47:10;;;;;;;3.28;1.67;;;25.00;54.50;;;;;;5023279;28;20067;-50
2022/08/05 12:49:49;;;;;;;3.22;1.58;;;24.90;55.60;;;;;;5027666;28;20049;-53
2022/08/05 12:52:33;;;;;;;2.30;1.80;;;24.90;55.10;;;;;;5020913;28;20112;-48
2022/08/05 12:55:21;;;;;;;2.53;1.63;;;24.90;55.80;;;;;;5024332;28;20095;-49
2022/08/05 12:57:52;;;;;;;2.35;1.80;;;24.90;55.50;;;;;;5017155;28;20418;-52
2022/08/05 13:00:44;;;;;;;1.88;1.08;;;25.00;55.30;;;;;;5009049;28;20081;-49
2022/08/05 13:03:33;;;;;;;5.03;1.40;;;25.20;54.70;;;;;;5018896;28;20037;-53
2022/08/05 13:06:07;;;;;;;1.15;1.00;;;25.30;54.00;;;;;;5029613;28;20046;-52
2022/08/05 13:08:37;;;;;;;3.30;1.00;;;25.50;52.50;;;;;;5013296;28;20129;-50
2022/08/05 13:11:06;;;;;;;1.75;1.35;;;25.70;52.40;;;;;;5000626;28;20038;-50
2022/08/05 13:13:37;;;;;;;1.33;0.98;;;25.90;52.10;;;;;;5011482;28;20041;-50
2022/08/05 13:16:24;;;;;;;1.63;1.05;;;26.10;51.60;;;;;;5018915;28;20659;-50
2022/08/05 13:18:55;;;;;;;0.70;0.65;;;26.40;51.20;;;;;;5012909;28;20568;-52
2022/08/05 13:21:24;;;;;;;2.63;1.10;;;26.60;50.70;;;;;;5009713;28;20614;-49
2022/08/05 13:24:05;;;;;;;1.40;1.05;;;26.80;50.00;;;;;;5021157;28;20133;-51
2022/08/05 13:26:34;;;;;;;2.80;1.42;;;27.00;49.20;;;;;;5029365;28;20033;-47
2022/08/05 13:29:04;;;;;;;2.63;1.15;;;27.20;47.80;;;;;;5018765;28;20096;-53
2022/08/05 13:31:31;;;;;;;4.32;1.73;;;27.20;47.30;;;;;;5022723;28;20042;-52
2022/08/05 13:34:23;;;;;;;2.75;1.52;;;27.30;47.70;;;;;;4992296;28;20050;-52
2022/08/05 13:36:59;;;;;;;3.20;1.05;;;27.40;46.90;;;;;;4995486;28;20062;-49
2022/08/05 13:39:32;;;;;;;1.35;0.75;;;27.60;46.50;;;;;;5007944;28;20041;-53
2022/08/05 13:42:20;;;;;;;1.33;0.65;;;28.00;46.30;;;;;;5003862;28;20065;-47
2022/08/05 13:44:52;;;;;;;0.70;0.70;;;28.40;45.90;;;;;;5015012;28;20050;-49